• Join FlightAware (Why Join?)
  • Login
  • US Flag 
09:19AM EDT


 

Airport Tracker/Info


-or-


 

Live Flight TrackerFlight Track Log ✈ VH-YDN ✈ 01-Oct-2013 ✈ YKNT - YBAS / ASP

Flight Track Log - Related Links

Times and Time Zones

All times are in EDT time to prevent confusion due to time zone crossing. See the VH-YDN flight status page for this flight to view local times or setup timezone preferences in your user account.

Time Position Orientation Groundspeed Altitude Reporting Facility
EDT Latitude Longitude Course Direction KTS MPH feet Rate Location/Type
03:33AM -23.2926 129.5948 98° East 1,800  Level Aus ATC (Calculated)
03:34AM -23.3016 129.6618 98° East 1,800  Level Aus ATC (Calculated)
03:36AM -23.3193 129.7979 98° East  Level FlightAware Approximate
03:37AM -23.3294 129.8764 98° East  Level FlightAware Approximate
03:37AM -23.3352 129.9213 98° East 2,800  Level Aus ATC (Calculated)
03:39AM -23.3528 130.0587 98° East  Level FlightAware Approximate
03:40AM -23.3628 130.1373 98° East  Level FlightAware Approximate
03:41AM -23.3728 130.2158 98° East  Level FlightAware Approximate
03:41AM -23.3745 130.2294 360° North 1,800  Level Aus ATC (Calculated)
03:41AM -23.3745 130.2294 98° East 1,800  Level Aus ATC (Calculated)
03:43AM -23.3878 130.3342 98° East  Level FlightAware Approximate
03:43AM -23.3894 130.3438 98° East 1,800  Level Aus ATC (Calculated)
03:44AM -23.3992 130.4224 98° East  Level FlightAware Approximate
03:44AM -23.4037 130.4546 97° East 2,800  Level Aus ATC (Calculated)
03:45AM -23.4091 130.5010 98° East  Level FlightAware Approximate
03:46AM -23.4185 130.5738 98° East  Level FlightAware Approximate
03:47AM -23.4283 130.6525 98° East  Level FlightAware Approximate
03:48AM -23.4380 130.7311 98° East  Level FlightAware Approximate
03:49AM -23.4476 130.8097 98° East  Level FlightAware Approximate
03:49AM -23.4584 130.8842 73° East 1,800  Level Aus ATC (Calculated)
03:50AM -23.4573 130.8884 98° East  Level FlightAware Approximate
03:51AM -23.4727 131.0022 98° East  Level FlightAware Approximate
03:52AM -23.4822 131.0809 97° East  Level FlightAware Approximate
03:53AM -23.4916 131.1596 97° East  Level FlightAware Approximate
03:54AM -23.5010 131.2383 97° East  Level FlightAware Approximate
03:55AM -23.5104 131.3171 97° East  Level FlightAware Approximate
03:56AM -23.5197 131.3958 97° East  Level FlightAware Approximate
03:57AM -23.5290 131.4745 97° East  Level FlightAware Approximate
03:58AM -23.5382 131.5533 97° East  Level FlightAware Approximate
03:59AM -23.5474 131.6321 97° East  Level FlightAware Approximate
04:00AM -23.5566 131.7108 97° East  Level FlightAware Approximate
04:01AM -23.5658 131.7896 97° East  Level FlightAware Approximate
04:02AM -23.5748 131.8684 97° East  Level FlightAware Approximate
04:03AM -23.5839 131.9473 97° East  Level FlightAware Approximate
04:04AM -23.5929 132.0261 97° East  Level FlightAware Approximate
04:04AM -23.6011 132.0987 97° East 2,800  Level Aus ATC (Calculated)
04:05AM -23.6101 132.1776 97° East  Level FlightAware Approximate
04:05AM -23.6147 132.2112 97° East 2,800  Level Aus ATC (Calculated)
04:06AM -23.6273 132.3166 97° East 1,800 -600 Descending Aus ATC (Calculated)
04:07AM -23.6391 132.4155 97° East 1,800  Level Aus ATC (Calculated)
04:08AM -23.6491 132.5068 97° East 1,800  Level Aus ATC (Calculated)
04:09AM -23.6594 132.5939 97° East 1,800  Level Aus ATC (Calculated)
04:11AM -23.6754 132.7425 97° East  Level FlightAware Approximate
04:12AM -23.6838 132.8215 97° East  Level FlightAware Approximate
04:13AM -23.6922 132.9005 97° East  Level FlightAware Approximate
04:14AM -23.7006 132.9794 97° East  Level FlightAware Approximate
04:14AM -23.7022 132.9949 97° East 2,800  Level Aus ATC (Calculated)
04:15AM -23.7138 133.1053 277° West 2,800  Level Aus ATC (Calculated)
04:16AM -23.7131 133.0990 97° East  Level FlightAware Approximate
04:17AM -23.7225 133.1882 97° East  Level FlightAware Approximate
04:18AM -23.7307 133.2673 96° East  Level FlightAware Approximate
04:19AM -23.7388 133.3463 96° East  Level FlightAware Approximate
04:19AM -23.7438 133.3950 96° East 2,800  Level Aus ATC (Calculated)
04:21AM -23.7538 133.4925 96° East  Level FlightAware Approximate
04:21AM -23.7623 133.5762 276° West 2,800  Level Aus ATC (Calculated)
04:22AM -23.7619 133.5716 96° East  Level FlightAware Approximate
04:23AM -23.7715 133.6671 96° East  Level FlightAware Approximate
04:23AM -23.7739 133.6573 95° East 1,800  Level Aus ATC (Calculated)
04:23AM -23.7786 133.7126 95° East 2,800 1,320 Climbing Aus ATC (Calculated)
04:25AM -23.7864 133.8036 95° East  Level FlightAware Approximate
04:26AM -23.7931 133.8829 95° East  Level FlightAware Approximate
04:27AM -23.8067 133.9022 275° West  Level Estimated
04:28AM -23.8067 133.9022 302° West  Level Estimated
04:29AM -23.8067 133.9022 302° West  Level Estimated
04:30AM -23.8067 133.9022 302° West  Level Estimated
04:31AM -23.8067 133.9022 302° West  Level Estimated
04:32AM -23.8067 133.9022 302° West  Level Estimated
04:33AM -23.8067 133.9022 302° West  Level Estimated
04:34AM -23.8067 133.9022 302° West  Level Estimated
04:35AM -23.8067 133.9022 98° East  Level Estimated
04:36AM -23.8067 133.9022 98° East  Level Estimated
04:37AM -23.8067 133.9022 98° East  Level Estimated
04:38AM -23.8067 133.9022 98° East  Level Estimated
04:39AM -23.8067 133.9022 98° East  Level Estimated
04:40AM -23.8067 133.9022 98° East  Level Estimated
04:41AM -23.8067 133.9022 98° East  Level Estimated
04:42AM -23.8067 133.9022 98° East  Level Estimated
04:43AM -23.8067 133.9022 98° East  Level Estimated
04:44AM -23.8067 133.9022 98° East  Level Estimated